Terminal Aerodrome Forecast
Issued by NWS

Home | Current Version | Previous Version | Text Only | Print | Product List | Glossary On
Versions: 1 2 3 4 5 6 7 8 9 10 11 12 13 14 15
000
FTUS46 KSEW 221200 AAA
TAFHQM
TAF AMD
KHQM 221258Z 2213/2312 VRB03KT P6SM BKN100 BKN200
      TEMPO 2213/2215 2SM BR FEW100 SCT200
     FM221600 VRB03KT P6SM BKN060 OVC100
     FM230800 VRB03KT P6SM BKN040 OVC060=

USA.gov is the U.S. government's official web portal to all federal, state and local government web resources and services.